sensor_id;sensor_type;location;lat;lon;timestamp;P1;durP1;ratioP1;P2;durP2;ratioP2
8401;SDS011;4238;48.404;9.498;2023-02-15T00:01:25;27.23;;;18.07;;
8401;SDS011;4238;48.404;9.498;2023-02-15T00:03:52;26.00;;;18.70;;
8401;SDS011;4238;48.404;9.498;2023-02-15T00:06:20;29.23;;;19.10;;
8401;SDS011;4238;48.404;9.498;2023-02-15T00:08:47;25.83;;;17.73;;
8401;SDS011;4238;48.404;9.498;2023-02-15T00:11:15;28.20;;;17.90;;
8401;SDS011;4238;48.404;9.498;2023-02-15T00:14:04;26.63;;;17.23;;
8401;SDS011;4238;48.404;9.498;2023-02-15T00:16:32;22.77;;;16.83;;
8401;SDS011;4238;48.404;9.498;2023-02-15T00:19:00;24.23;;;15.57;;
8401;SDS011;4238;48.404;9.498;2023-02-15T00:21:29;20.60;;;15.70;;
8401;SDS011;4238;48.404;9.498;2023-02-15T00:23:57;21.17;;;14.73;;
8401;SDS011;4238;48.404;9.498;2023-02-15T00:26:25;21.97;;;15.83;;
8401;SDS011;4238;48.404;9.498;2023-02-15T00:28:52;24.40;;;15.90;;
8401;SDS011;4238;48.404;9.498;2023-02-15T00:31:20;23.00;;;15.43;;
8401;SDS011;4238;48.404;9.498;2023-02-15T00:33:47;23.37;;;14.87;;
8401;SDS011;4238;48.404;9.498;2023-02-15T00:36:14;17.90;;;12.73;;
8401;SDS011;4238;48.404;9.498;2023-02-15T00:38:42;18.33;;;12.57;;
8401;SDS011;4238;48.404;9.498;2023-02-15T00:41:09;18.33;;;11.80;;
8401;SDS011;4238;48.404;9.498;2023-02-15T00:43:36;17.77;;;11.77;;
8401;SDS011;4238;48.404;9.498;2023-02-15T00:46:04;19.00;;;12.63;;
8401;SDS011;4238;48.404;9.498;2023-02-15T00:48:31;19.20;;;12.20;;
8401;SDS011;4238;48.404;9.498;2023-02-15T00:50:58;18.40;;;13.00;;
8401;SDS011;4238;48.404;9.498;2023-02-15T00:53:26;20.13;;;13.07;;
8401;SDS011;4238;48.404;9.498;2023-02-15T00:55:55;18.07;;;12.37;;
8401;SDS011;4238;48.404;9.498;2023-02-15T00:58:22;19.67;;;12.80;;
8401;SDS011;4238;48.404;9.498;2023-02-15T01:00:49;21.30;;;13.37;;
8401;SDS011;4238;48.404;9.498;2023-02-15T01:03:18;18.87;;;12.83;;
8401;SDS011;4238;48.404;9.498;2023-02-15T01:05:46;19.93;;;13.80;;
8401;SDS011;4238;48.404;9.498;2023-02-15T01:08:14;19.97;;;12.47;;
8401;SDS011;4238;48.404;9.498;2023-02-15T01:10:41;19.60;;;12.73;;
8401;SDS011;4238;48.404;9.498;2023-02-15T01:13:10;17.57;;;12.30;;
8401;SDS011;4238;48.404;9.498;2023-02-15T01:15:37;19.47;;;13.70;;
8401;SDS011;4238;48.404;9.498;2023-02-15T01:18:04;20.40;;;13.03;;
8401;SDS011;4238;48.404;9.498;2023-02-15T01:20:33;18.37;;;12.93;;
8401;SDS011;4238;48.404;9.498;2023-02-15T01:23:02;20.67;;;12.80;;
8401;SDS011;4238;48.404;9.498;2023-02-15T01:25:29;18.80;;;12.47;;
8401;SDS011;4238;48.404;9.498;2023-02-15T01:27:55;20.87;;;13.53;;
8401;SDS011;4238;48.404;9.498;2023-02-15T01:30:24;19.83;;;13.47;;
8401;SDS011;4238;48.404;9.498;2023-02-15T01:32:51;20.13;;;12.87;;
8401;SDS011;4238;48.404;9.498;2023-02-15T01:35:18;17.83;;;12.80;;
8401;SDS011;4238;48.404;9.498;2023-02-15T01:37:45;20.40;;;13.27;;
8401;SDS011;4238;48.404;9.498;2023-02-15T01:40:12;18.70;;;12.10;;
8401;SDS011;4238;48.404;9.498;2023-02-15T01:42:41;19.73;;;12.73;;
8401;SDS011;4238;48.404;9.498;2023-02-15T01:45:14;18.33;;;13.03;;
8401;SDS011;4238;48.404;9.498;2023-02-15T01:47:49;21.73;;;13.77;;
8401;SDS011;4238;48.404;9.498;2023-02-15T01:50:20;19.77;;;12.80;;
8401;SDS011;4238;48.404;9.498;2023-02-15T01:52:52;18.83;;;12.13;;
8401;SDS011;4238;48.404;9.498;2023-02-15T01:55:22;15.80;;;11.60;;
8401;SDS011;4238;48.404;9.498;2023-02-15T01:57:51;20.70;;;12.87;;
8401;SDS011;4238;48.404;9.498;2023-02-15T02:00:19;23.70;;;14.33;;
8401;SDS011;4238;48.404;9.498;2023-02-15T02:02:46;22.73;;;14.93;;
8401;SDS011;4238;48.404;9.498;2023-02-15T02:05:19;23.47;;;15.67;;
8401;SDS011;4238;48.404;9.498;2023-02-15T02:07:46;25.50;;;15.17;;
8401;SDS011;4238;48.404;9.498;2023-02-15T02:10:17;16.10;;;12.30;;
8401;SDS011;4238;48.404;9.498;2023-02-15T02:12:45;18.00;;;11.83;;
8401;SDS011;4238;48.404;9.498;2023-02-15T02:15:15;17.77;;;12.83;;
8401;SDS011;4238;48.404;9.498;2023-02-15T02:17:47;21.20;;;13.03;;
8401;SDS011;4238;48.404;9.498;2023-02-15T02:20:28;19.67;;;11.67;;
8401;SDS011;4238;48.404;9.498;2023-02-15T02:23:15;17.90;;;12.07;;
8401;SDS011;4238;48.404;9.498;2023-02-15T02:32:00;20.43;;;13.23;;
8401;SDS011;4238;48.404;9.498;2023-02-15T02:34:50;23.30;;;13.83;;
8401;SDS011;4238;48.404;9.498;2023-02-15T02:37:23;20.37;;;13.63;;
8401;SDS011;4238;48.404;9.498;2023-02-15T02:39:56;17.87;;;12.30;;
8401;SDS011;4238;48.404;9.498;2023-02-15T02:42:33;18.90;;;12.17;;
8401;SDS011;4238;48.404;9.498;2023-02-15T02:45:05;16.80;;;11.97;;
8401;SDS011;4238;48.404;9.498;2023-02-15T02:47:35;17.20;;;12.83;;
8401;SDS011;4238;48.404;9.498;2023-02-15T02:50:11;18.47;;;12.50;;
8401;SDS011;4238;48.404;9.498;2023-02-15T02:52:41;23.53;;;13.17;;
8401;SDS011;4238;48.404;9.498;2023-02-15T02:55:10;21.70;;;12.73;;
8401;SDS011;4238;48.404;9.498;2023-02-15T02:57:43;17.53;;;11.67;;
8401;SDS011;4238;48.404;9.498;2023-02-15T03:00:16;18.13;;;11.93;;
8401;SDS011;4238;48.404;9.498;2023-02-15T03:02:44;18.47;;;11.87;;
8401;SDS011;4238;48.404;9.498;2023-02-15T03:05:15;19.23;;;11.37;;
8401;SDS011;4238;48.404;9.498;2023-02-15T03:07:47;20.23;;;11.67;;
8401;SDS011;4238;48.404;9.498;2023-02-15T03:10:18;15.87;;;11.37;;
8401;SDS011;4238;48.404;9.498;2023-02-15T03:12:48;14.47;;;10.60;;
8401;SDS011;4238;48.404;9.498;2023-02-15T03:15:16;15.83;;;10.00;;
8401;SDS011;4238;48.404;9.498;2023-02-15T03:17:49;12.80;;;10.27;;
8401;SDS011;4238;48.404;9.498;2023-02-15T03:20:23;15.00;;;10.03;;
8401;SDS011;4238;48.404;9.498;2023-02-15T03:22:54;16.07;;;10.30;;
8401;SDS011;4238;48.404;9.498;2023-02-15T03:25:25;15.27;;;9.47;;
8401;SDS011;4238;48.404;9.498;2023-02-15T03:27:58;13.33;;;10.17;;
8401;SDS011;4238;48.404;9.498;2023-02-15T03:30:29;16.70;;;11.03;;
8401;SDS011;4238;48.404;9.498;2023-02-15T03:32:58;15.40;;;10.47;;
8401;SDS011;4238;48.404;9.498;2023-02-15T03:35:30;16.30;;;10.67;;
8401;SDS011;4238;48.404;9.498;2023-02-15T03:38:02;15.77;;;10.50;;
8401;SDS011;4238;48.404;9.498;2023-02-15T03:40:34;13.20;;;10.77;;
8401;SDS011;4238;48.404;9.498;2023-02-15T03:43:22;14.67;;;10.37;;
8401;SDS011;4238;48.404;9.498;2023-02-15T03:45:55;18.80;;;11.30;;
8401;SDS011;4238;48.404;9.498;2023-02-15T03:48:26;17.93;;;11.40;;
8401;SDS011;4238;48.404;9.498;2023-02-15T03:50:58;16.10;;;11.13;;
8401;SDS011;4238;48.404;9.498;2023-02-15T03:53:46;15.00;;;10.87;;
8401;SDS011;4238;48.404;9.498;2023-02-15T03:56:14;18.10;;;11.73;;
8401;SDS011;4238;48.404;9.498;2023-02-15T03:58:41;16.53;;;11.00;;
8401;SDS011;4238;48.404;9.498;2023-02-15T04:01:26;17.63;;;11.23;;
8401;SDS011;4238;48.404;9.498;2023-02-15T04:04:23;16.63;;;11.13;;
8401;SDS011;4238;48.404;9.498;2023-02-15T04:06:54;16.73;;;10.80;;
8401;SDS011;4238;48.404;9.498;2023-02-15T04:09:21;14.50;;;10.90;;
8401;SDS011;4238;48.404;9.498;2023-02-15T04:12:05;14.80;;;10.20;;
8401;SDS011;4238;48.404;9.498;2023-02-15T04:14:32;17.03;;;11.00;;
8401;SDS011;4238;48.404;9.498;2023-02-15T04:17:25;17.83;;;10.50;;
8401;SDS011;4238;48.404;9.498;2023-02-15T04:19:52;13.80;;;10.20;;
8401;SDS011;4238;48.404;9.498;2023-02-15T04:22:37;17.87;;;13.10;;
8401;SDS011;4238;48.404;9.498;2023-02-15T04:25:22;21.60;;;13.70;;
8401;SDS011;4238;48.404;9.498;2023-02-15T04:27:49;21.53;;;14.33;;
8401;SDS011;4238;48.404;9.498;2023-02-15T04:30:18;17.53;;;13.47;;
8401;SDS011;4238;48.404;9.498;2023-02-15T04:32:46;22.37;;;14.90;;
8401;SDS011;4238;48.404;9.498;2023-02-15T04:35:14;19.53;;;13.63;;
8401;SDS011;4238;48.404;9.498;2023-02-15T04:37:43;17.67;;;11.97;;
8401;SDS011;4238;48.404;9.498;2023-02-15T04:40:11;17.70;;;12.20;;
8401;SDS011;4238;48.404;9.498;2023-02-15T04:42:39;20.07;;;12.53;;
8401;SDS011;4238;48.404;9.498;2023-02-15T04:45:06;19.17;;;12.50;;
8401;SDS011;4238;48.404;9.498;2023-02-15T04:47:33;19.33;;;13.27;;
8401;SDS011;4238;48.404;9.498;2023-02-15T04:50:01;20.87;;;11.87;;
8401;SDS011;4238;48.404;9.498;2023-02-15T04:52:28;17.07;;;11.20;;
8401;SDS011;4238;48.404;9.498;2023-02-15T04:54:56;18.83;;;11.23;;
8401;SDS011;4238;48.404;9.498;2023-02-15T04:57:23;18.70;;;11.97;;
8401;SDS011;4238;48.404;9.498;2023-02-15T04:59:50;16.90;;;11.53;;
8401;SDS011;4238;48.404;9.498;2023-02-15T05:02:17;17.50;;;11.07;;
8401;SDS011;4238;48.404;9.498;2023-02-15T05:04:43;17.67;;;10.47;;
8401;SDS011;4238;48.404;9.498;2023-02-15T05:07:10;14.67;;;10.47;;
8401;SDS011;4238;48.404;9.498;2023-02-15T05:09:37;18.93;;;11.60;;
8401;SDS011;4238;48.404;9.498;2023-02-15T05:12:06;20.37;;;12.33;;
8401;SDS011;4238;48.404;9.498;2023-02-15T05:14:32;19.00;;;11.90;;
8401;SDS011;4238;48.404;9.498;2023-02-15T05:16:59;17.20;;;10.63;;
8401;SDS011;4238;48.404;9.498;2023-02-15T05:19:28;15.17;;;10.83;;
8401;SDS011;4238;48.404;9.498;2023-02-15T05:21:55;18.03;;;10.40;;
8401;SDS011;4238;48.404;9.498;2023-02-15T05:24:22;18.13;;;11.90;;
8401;SDS011;4238;48.404;9.498;2023-02-15T05:27:08;19.53;;;11.83;;
8401;SDS011;4238;48.404;9.498;2023-02-15T05:29:54;19.57;;;12.07;;
8401;SDS011;4238;48.404;9.498;2023-02-15T05:32:21;18.67;;;11.00;;
8401;SDS011;4238;48.404;9.498;2023-02-15T05:34:48;22.67;;;14.10;;
8401;SDS011;4238;48.404;9.498;2023-02-15T05:37:15;17.50;;;11.03;;
8401;SDS011;4238;48.404;9.498;2023-02-15T05:39:42;17.07;;;10.50;;
8401;SDS011;4238;48.404;9.498;2023-02-15T05:42:10;17.03;;;10.80;;
8401;SDS011;4238;48.404;9.498;2023-02-15T05:44:37;14.43;;;10.90;;
8401;SDS011;4238;48.404;9.498;2023-02-15T05:47:04;15.87;;;10.80;;
8401;SDS011;4238;48.404;9.498;2023-02-15T05:49:34;16.93;;;11.40;;
8401;SDS011;4238;48.404;9.498;2023-02-15T05:52:01;16.93;;;11.43;;
8401;SDS011;4238;48.404;9.498;2023-02-15T05:54:28;18.43;;;11.73;;
8401;SDS011;4238;48.404;9.498;2023-02-15T05:56:55;18.00;;;12.57;;
8401;SDS011;4238;48.404;9.498;2023-02-15T05:59:24;17.63;;;11.80;;
8401;SDS011;4238;48.404;9.498;2023-02-15T06:01:51;22.93;;;13.07;;
8401;SDS011;4238;48.404;9.498;2023-02-15T06:04:18;26.63;;;16.07;;
8401;SDS011;4238;48.404;9.498;2023-02-15T06:06:45;23.37;;;15.33;;
8401;SDS011;4238;48.404;9.498;2023-02-15T06:09:12;21.40;;;14.47;;
8401;SDS011;4238;48.404;9.498;2023-02-15T06:11:39;21.40;;;14.67;;
8401;SDS011;4238;48.404;9.498;2023-02-15T06:14:06;26.20;;;15.10;;
8401;SDS011;4238;48.404;9.498;2023-02-15T06:16:34;21.60;;;15.07;;
8401;SDS011;4238;48.404;9.498;2023-02-15T06:19:01;20.60;;;13.50;;
8401;SDS011;4238;48.404;9.498;2023-02-15T06:21:28;24.63;;;14.60;;
8401;SDS011;4238;48.404;9.498;2023-02-15T06:23:55;22.63;;;14.47;;
8401;SDS011;4238;48.404;9.498;2023-02-15T06:26:22;22.73;;;14.03;;
8401;SDS011;4238;48.404;9.498;2023-02-15T06:28:49;21.07;;;13.23;;
8401;SDS011;4238;48.404;9.498;2023-02-15T06:31:16;31.80;;;17.00;;
8401;SDS011;4238;48.404;9.498;2023-02-15T06:33:44;42.50;;;24.20;;
8401;SDS011;4238;48.404;9.498;2023-02-15T06:36:11;155.47;;;75.97;;
8401;SDS011;4238;48.404;9.498;2023-02-15T06:38:38;151.73;;;76.03;;
8401;SDS011;4238;48.404;9.498;2023-02-15T06:41:05;143.10;;;77.22;;
8401;SDS011;4238;48.404;9.498;2023-02-15T06:43:32;64.37;;;35.23;;
8401;SDS011;4238;48.404;9.498;2023-02-15T06:46:00;40.50;;;29.05;;
8401;SDS011;4238;48.404;9.498;2023-02-15T06:48:27;52.30;;;31.83;;
8401;SDS011;4238;48.404;9.498;2023-02-15T06:50:55;46.60;;;27.03;;
8401;SDS011;4238;48.404;9.498;2023-02-15T06:53:22;44.70;;;25.10;;
8401;SDS011;4238;48.404;9.498;2023-02-15T06:55:49;38.67;;;23.33;;
8401;SDS011;4238;48.404;9.498;2023-02-15T06:58:15;40.30;;;24.47;;
8401;SDS011;4238;48.404;9.498;2023-02-15T07:00:42;39.53;;;25.43;;
8401;SDS011;4238;48.404;9.498;2023-02-15T07:03:09;39.30;;;22.60;;
8401;SDS011;4238;48.404;9.498;2023-02-15T07:05:39;43.93;;;27.57;;
8401;SDS011;4238;48.404;9.498;2023-02-15T07:08:08;36.07;;;23.87;;
8401;SDS011;4238;48.404;9.498;2023-02-15T07:10:34;45.27;;;26.07;;
8401;SDS011;4238;48.404;9.498;2023-02-15T07:13:01;36.60;;;22.43;;
8401;SDS011;4238;48.404;9.498;2023-02-15T07:15:27;44.77;;;26.50;;
8401;SDS011;4238;48.404;9.498;2023-02-15T07:17:54;38.00;;;25.70;;
8401;SDS011;4238;48.404;9.498;2023-02-15T07:20:23;34.23;;;22.37;;
8401;SDS011;4238;48.404;9.498;2023-02-15T07:22:50;37.50;;;23.60;;
8401;SDS011;4238;48.404;9.498;2023-02-15T07:25:18;39.77;;;23.07;;
8401;SDS011;4238;48.404;9.498;2023-02-15T07:27:46;38.37;;;24.70;;
8401;SDS011;4238;48.404;9.498;2023-02-15T07:30:13;35.00;;;23.93;;
8401;SDS011;4238;48.404;9.498;2023-02-15T07:32:42;42.80;;;27.70;;
8401;SDS011;4238;48.404;9.498;2023-02-15T07:35:23;38.10;;;25.87;;
8401;SDS011;4238;48.404;9.498;2023-02-15T07:37:50;33.87;;;21.90;;
8401;SDS011;4238;48.404;9.498;2023-02-15T07:40:19;24.80;;;20.20;;
8401;SDS011;4238;48.404;9.498;2023-02-15T07:42:48;31.37;;;19.57;;
8401;SDS011;4238;48.404;9.498;2023-02-15T07:45:17;32.40;;;20.73;;
8401;SDS011;4238;48.404;9.498;2023-02-15T07:47:44;27.30;;;19.37;;
8401;SDS011;4238;48.404;9.498;2023-02-15T07:50:11;32.70;;;21.70;;
8401;SDS011;4238;48.404;9.498;2023-02-15T07:52:38;37.33;;;24.23;;
8401;SDS011;4238;48.404;9.498;2023-02-15T07:55:05;35.73;;;23.83;;
8401;SDS011;4238;48.404;9.498;2023-02-15T07:57:35;37.00;;;24.67;;
8401;SDS011;4238;48.404;9.498;2023-02-15T08:00:02;35.17;;;23.60;;
8401;SDS011;4238;48.404;9.498;2023-02-15T08:02:29;28.53;;;20.40;;
8401;SDS011;4238;48.404;9.498;2023-02-15T08:04:56;32.60;;;19.80;;
8401;SDS011;4238;48.404;9.498;2023-02-15T08:07:23;34.57;;;22.87;;
8401;SDS011;4238;48.404;9.498;2023-02-15T08:09:50;35.60;;;24.10;;
8401;SDS011;4238;48.404;9.498;2023-02-15T08:12:18;34.47;;;23.03;;
8401;SDS011;4238;48.404;9.498;2023-02-15T08:14:47;36.90;;;25.10;;
8401;SDS011;4238;48.404;9.498;2023-02-15T08:17:14;39.03;;;25.37;;
8401;SDS011;4238;48.404;9.498;2023-02-15T08:19:41;40.13;;;27.70;;
8401;SDS011;4238;48.404;9.498;2023-02-15T08:22:10;39.07;;;28.17;;
8401;SDS011;4238;48.404;9.498;2023-02-15T08:24:39;42.90;;;27.43;;
8401;SDS011;4238;48.404;9.498;2023-02-15T08:27:08;33.40;;;21.77;;
8401;SDS011;4238;48.404;9.498;2023-02-15T08:29:36;40.93;;;27.57;;
8401;SDS011;4238;48.404;9.498;2023-02-15T08:32:06;35.70;;;24.93;;
8401;SDS011;4238;48.404;9.498;2023-02-15T08:34:35;45.47;;;31.43;;
8401;SDS011;4238;48.404;9.498;2023-02-15T08:37:03;51.63;;;34.50;;
8401;SDS011;4238;48.404;9.498;2023-02-15T08:39:31;48.17;;;32.90;;
8401;SDS011;4238;48.404;9.498;2023-02-15T08:41:58;43.57;;;31.33;;
8401;SDS011;4238;48.404;9.498;2023-02-15T08:44:25;42.30;;;31.23;;
8401;SDS011;4238;48.404;9.498;2023-02-15T08:46:52;46.47;;;31.93;;
8401;SDS011;4238;48.404;9.498;2023-02-15T08:49:21;44.97;;;29.67;;
8401;SDS011;4238;48.404;9.498;2023-02-15T08:51:49;39.77;;;27.17;;
8401;SDS011;4238;48.404;9.498;2023-02-15T08:54:17;35.60;;;25.13;;
8401;SDS011;4238;48.404;9.498;2023-02-15T08:56:44;33.13;;;22.03;;
8401;SDS011;4238;48.404;9.498;2023-02-15T08:59:12;36.47;;;22.70;;
8401;SDS011;4238;48.404;9.498;2023-02-15T09:01:41;34.40;;;22.50;;
8401;SDS011;4238;48.404;9.498;2023-02-15T09:04:08;31.70;;;21.87;;
8401;SDS011;4238;48.404;9.498;2023-02-15T09:06:37;24.70;;;18.30;;
8401;SDS011;4238;48.404;9.498;2023-02-15T09:09:05;27.63;;;19.77;;
8401;SDS011;4238;48.404;9.498;2023-02-15T09:11:33;33.30;;;20.43;;
8401;SDS011;4238;48.404;9.498;2023-02-15T09:14:02;30.37;;;22.67;;
8401;SDS011;4238;48.404;9.498;2023-02-15T09:16:31;39.37;;;26.67;;
8401;SDS011;4238;48.404;9.498;2023-02-15T09:18:59;31.83;;;22.80;;
8401;SDS011;4238;48.404;9.498;2023-02-15T09:21:27;33.03;;;23.83;;
8401;SDS011;4238;48.404;9.498;2023-02-15T09:23:57;33.20;;;24.83;;
8401;SDS011;4238;48.404;9.498;2023-02-15T09:26:26;32.73;;;23.83;;
8401;SDS011;4238;48.404;9.498;2023-02-15T09:28:54;28.77;;;21.47;;
8401;SDS011;4238;48.404;9.498;2023-02-15T09:31:23;28.23;;;20.80;;
8401;SDS011;4238;48.404;9.498;2023-02-15T09:33:51;30.13;;;21.63;;
8401;SDS011;4238;48.404;9.498;2023-02-15T09:36:19;28.63;;;20.80;;
8401;SDS011;4238;48.404;9.498;2023-02-15T09:38:47;25.70;;;19.43;;
8401;SDS011;4238;48.404;9.498;2023-02-15T09:44:38;22.97;;;19.23;;
8401;SDS011;4238;48.404;9.498;2023-02-15T09:47:23;24.30;;;20.03;;
8401;SDS011;4238;48.404;9.498;2023-02-15T09:50:11;21.17;;;16.77;;
8401;SDS011;4238;48.404;9.498;2023-02-15T09:52:46;23.60;;;18.70;;
8401;SDS011;4238;48.404;9.498;2023-02-15T09:55:24;22.37;;;16.37;;
8401;SDS011;4238;48.404;9.498;2023-02-15T09:58:08;16.50;;;14.53;;
8401;SDS011;4238;48.404;9.498;2023-02-15T10:00:45;20.73;;;15.43;;
8401;SDS011;4238;48.404;9.498;2023-02-15T10:03:20;19.80;;;16.07;;
8401;SDS011;4238;48.404;9.498;2023-02-15T10:05:58;16.77;;;13.33;;
8401;SDS011;4238;48.404;9.498;2023-02-15T10:08:45;14.60;;;13.03;;
8401;SDS011;4238;48.404;9.498;2023-02-15T10:11:20;14.50;;;12.87;;
8401;SDS011;4238;48.404;9.498;2023-02-15T10:17:13;15.60;;;13.10;;
8401;SDS011;4238;48.404;9.498;2023-02-15T10:19:53;15.33;;;12.80;;
8401;SDS011;4238;48.404;9.498;2023-02-15T10:22:32;14.43;;;12.73;;
8401;SDS011;4238;48.404;9.498;2023-02-15T10:25:20;16.02;;;13.02;;
8401;SDS011;4238;48.404;9.498;2023-02-15T10:27:57;15.48;;;13.88;;
8401;SDS011;4238;48.404;9.498;2023-02-15T10:30:31;19.15;;;15.98;;
8401;SDS011;4238;48.404;9.498;2023-02-15T10:33:07;17.08;;;14.98;;
8401;SDS011;4238;48.404;9.498;2023-02-15T10:35:43;16.67;;;14.98;;
8401;SDS011;4238;48.404;9.498;2023-02-15T10:38:20;15.48;;;13.88;;
8401;SDS011;4238;48.404;9.498;2023-02-15T10:40:59;15.68;;;13.65;;
8401;SDS011;4238;48.404;9.498;2023-02-15T10:43:41;16.10;;;13.57;;
8401;SDS011;4238;48.404;9.498;2023-02-15T10:46:27;13.50;;;12.10;;
8401;SDS011;4238;48.404;9.498;2023-02-15T10:49:22;14.85;;;12.00;;
8401;SDS011;4238;48.404;9.498;2023-02-15T10:52:05;15.18;;;11.52;;
8401;SDS011;4238;48.404;9.498;2023-02-15T10:54:41;14.35;;;10.18;;
8401;SDS011;4238;48.404;9.498;2023-02-15T10:57:12;10.93;;;9.20;;
8401;SDS011;4238;48.404;9.498;2023-02-15T11:02:38;9.43;;;8.32;;
8401;SDS011;4238;48.404;9.498;2023-02-15T11:05:23;11.13;;;9.15;;
8401;SDS011;4238;48.404;9.498;2023-02-15T11:07:59;11.27;;;10.18;;
8401;SDS011;4238;48.404;9.498;2023-02-15T11:10:30;11.13;;;9.60;;
8401;SDS011;4238;48.404;9.498;2023-02-15T11:13:02;9.55;;;8.52;;
8401;SDS011;4238;48.404;9.498;2023-02-15T11:15:34;9.32;;;8.43;;
8401;SDS011;4238;48.404;9.498;2023-02-15T11:18:06;8.02;;;7.22;;
8401;SDS011;4238;48.404;9.498;2023-02-15T11:20:42;5.88;;;5.38;;
8401;SDS011;4238;48.404;9.498;2023-02-15T11:23:15;5.30;;;4.78;;
8401;SDS011;4238;48.404;9.498;2023-02-15T11:25:44;5.50;;;3.92;;
8401;SDS011;4238;48.404;9.498;2023-02-15T11:28:17;5.18;;;3.65;;
8401;SDS011;4238;48.404;9.498;2023-02-15T11:30:50;3.78;;;3.47;;
8401;SDS011;4238;48.404;9.498;2023-02-15T11:33:21;3.85;;;3.08;;
8401;SDS011;4238;48.404;9.498;2023-02-15T11:35:53;2.90;;;2.70;;
8401;SDS011;4238;48.404;9.498;2023-02-15T11:38:26;2.88;;;2.67;;
8401;SDS011;4238;48.404;9.498;2023-02-15T11:40:56;1.85;;;1.65;;
8401;SDS011;4238;48.404;9.498;2023-02-15T11:43:27;2.35;;;2.22;;
8401;SDS011;4238;48.404;9.498;2023-02-15T11:45:59;2.38;;;1.60;;
8401;SDS011;4238;48.404;9.498;2023-02-15T11:48:26;2.47;;;2.28;;
8401;SDS011;4238;48.404;9.498;2023-02-15T11:50:58;1.85;;;1.75;;
8401;SDS011;4238;48.404;9.498;2023-02-15T11:53:26;2.50;;;2.30;;
8401;SDS011;4238;48.404;9.498;2023-02-15T11:55:57;2.20;;;2.10;;
8401;SDS011;4238;48.404;9.498;2023-02-15T11:58:27;2.63;;;2.38;;
8401;SDS011;4238;48.404;9.498;2023-02-15T12:01:00;2.72;;;2.53;;
8401;SDS011;4238;48.404;9.498;2023-02-15T12:03:39;2.63;;;2.42;;
8401;SDS011;4238;48.404;9.498;2023-02-15T12:06:13;2.03;;;1.80;;
8401;SDS011;4238;48.404;9.498;2023-02-15T12:08:46;2.80;;;2.60;;
8401;SDS011;4238;48.404;9.498;2023-02-15T12:11:19;2.85;;;2.50;;
8401;SDS011;4238;48.404;9.498;2023-02-15T12:13:55;2.33;;;2.13;;
8401;SDS011;4238;48.404;9.498;2023-02-15T12:16:23;2.53;;;2.08;;
8401;SDS011;4238;48.404;9.498;2023-02-15T12:18:51;2.50;;;2.38;;
8401;SDS011;4238;48.404;9.498;2023-02-15T12:21:26;3.30;;;2.60;;
8401;SDS011;4238;48.404;9.498;2023-02-15T12:23:55;3.03;;;2.53;;
8401;SDS011;4238;48.404;9.498;2023-02-15T12:26:25;3.25;;;2.30;;
8401;SDS011;4238;48.404;9.498;2023-02-15T12:28:53;2.70;;;2.50;;
8401;SDS011;4238;48.404;9.498;2023-02-15T12:31:27;3.78;;;3.47;;
8401;SDS011;4238;48.404;9.498;2023-02-15T12:33:59;4.30;;;3.72;;
8401;SDS011;4238;48.404;9.498;2023-02-15T12:36:30;3.25;;;2.95;;
8401;SDS011;4238;48.404;9.498;2023-02-15T12:39:20;3.00;;;2.80;;
8401;SDS011;4238;48.404;9.498;2023-02-15T12:42:00;4.90;;;4.40;;
8401;SDS011;4238;48.404;9.498;2023-02-15T12:44:30;4.00;;;3.70;;
8401;SDS011;4238;48.404;9.498;2023-02-15T12:46:59;4.10;;;3.78;;
8401;SDS011;4238;48.404;9.498;2023-02-15T12:49:28;3.03;;;2.83;;
8401;SDS011;4238;48.404;9.498;2023-02-15T12:51:58;3.83;;;3.53;;
8401;SDS011;4238;48.404;9.498;2023-02-15T12:54:28;3.40;;;3.17;;
8401;SDS011;4238;48.404;9.498;2023-02-15T12:56:57;3.10;;;2.90;;
8401;SDS011;4238;48.404;9.498;2023-02-15T12:59:24;3.20;;;2.90;;
8401;SDS011;4238;48.404;9.498;2023-02-15T13:01:51;2.88;;;2.63;;
8401;SDS011;4238;48.404;9.498;2023-02-15T13:04:21;2.33;;;2.17;;
8401;SDS011;4238;48.404;9.498;2023-02-15T13:06:52;2.38;;;2.28;;
8401;SDS011;4238;48.404;9.498;2023-02-15T13:09:24;2.85;;;2.50;;
8401;SDS011;4238;48.404;9.498;2023-02-15T13:12:08;2.65;;;2.55;;
8401;SDS011;4238;48.404;9.498;2023-02-15T13:14:38;2.85;;;2.33;;
8401;SDS011;4238;48.404;9.498;2023-02-15T13:17:10;1.92;;;1.83;;
8401;SDS011;4238;48.404;9.498;2023-02-15T13:19:40;3.35;;;2.08;;
8401;SDS011;4238;48.404;9.498;2023-02-15T13:22:10;2.22;;;1.90;;
8401;SDS011;4238;48.404;9.498;2023-02-15T13:24:43;2.50;;;2.22;;
8401;SDS011;4238;48.404;9.498;2023-02-15T13:27:14;2.55;;;2.42;;
8401;SDS011;4238;48.404;9.498;2023-02-15T13:29:45;2.25;;;2.15;;
8401;SDS011;4238;48.404;9.498;2023-02-15T13:32:19;2.60;;;2.40;;
8401;SDS011;4238;48.404;9.498;2023-02-15T13:34:52;3.75;;;2.08;;
8401;SDS011;4238;48.404;9.498;2023-02-15T13:37:24;2.50;;;2.30;;
8401;SDS011;4238;48.404;9.498;2023-02-15T13:40:22;2.35;;;2.25;;
8401;SDS011;4238;48.404;9.498;2023-02-15T13:42:53;2.08;;;1.98;;
8401;SDS011;4238;48.404;9.498;2023-02-15T13:45:31;2.65;;;2.38;;
8401;SDS011;4238;48.404;9.498;2023-02-15T13:48:08;2.15;;;2.05;;
8401;SDS011;4238;48.404;9.498;2023-02-15T13:50:55;2.75;;;2.55;;
8401;SDS011;4238;48.404;9.498;2023-02-15T13:53:40;4.95;;;2.10;;
8401;SDS011;4238;48.404;9.498;2023-02-15T13:56:23;2.15;;;2.05;;
8401;SDS011;4238;48.404;9.498;2023-02-15T13:59:00;2.00;;;1.90;;
8401;SDS011;4238;48.404;9.498;2023-02-15T14:01:39;2.60;;;2.40;;
8401;SDS011;4238;48.404;9.498;2023-02-15T14:07:12;2.75;;;2.42;;
8401;SDS011;4238;48.404;9.498;2023-02-15T14:09:53;3.72;;;2.63;;
8401;SDS011;4238;48.404;9.498;2023-02-15T14:12:41;3.42;;;2.90;;
8401;SDS011;4238;48.404;9.498;2023-02-15T14:15:24;2.90;;;2.70;;
8401;SDS011;4238;48.404;9.498;2023-02-15T14:17:59;2.85;;;2.67;;
8401;SDS011;4238;48.404;9.498;2023-02-15T14:20:44;2.92;;;2.72;;
8401;SDS011;4238;48.404;9.498;2023-02-15T14:23:19;3.33;;;3.03;;
8401;SDS011;4238;48.404;9.498;2023-02-15T14:25:57;3.20;;;2.85;;
8401;SDS011;4238;48.404;9.498;2023-02-15T14:28:31;3.47;;;3.17;;
8401;SDS011;4238;48.404;9.498;2023-02-15T14:31:04;2.63;;;2.42;;
8401;SDS011;4238;48.404;9.498;2023-02-15T14:33:35;2.17;;;2.08;;
8401;SDS011;4238;48.404;9.498;2023-02-15T14:36:05;2.55;;;2.35;;
8401;SDS011;4238;48.404;9.498;2023-02-15T14:38:39;2.33;;;2.22;;
8401;SDS011;4238;48.404;9.498;2023-02-15T14:41:17;2.63;;;2.42;;
8401;SDS011;4238;48.404;9.498;2023-02-15T14:43:52;2.75;;;2.53;;
8401;SDS011;4238;48.404;9.498;2023-02-15T14:46:29;2.90;;;2.63;;
8401;SDS011;4238;48.404;9.498;2023-02-15T14:49:03;3.42;;;2.50;;
8401;SDS011;4238;48.404;9.498;2023-02-15T14:51:55;2.58;;;2.38;;
8401;SDS011;4238;48.404;9.498;2023-02-15T14:57:25;2.65;;;2.45;;
8401;SDS011;4238;48.404;9.498;2023-02-15T14:59:57;2.53;;;2.42;;
8401;SDS011;4238;48.404;9.498;2023-02-15T15:02:26;2.53;;;2.42;;
8401;SDS011;4238;48.404;9.498;2023-02-15T15:04:56;3.67;;;2.70;;
8401;SDS011;4238;48.404;9.498;2023-02-15T15:07:36;3.40;;;3.05;;
8401;SDS011;4238;48.404;9.498;2023-02-15T15:19:10;3.03;;;2.78;;
8401;SDS011;4238;48.404;9.498;2023-02-15T15:21:53;2.55;;;2.38;;
8401;SDS011;4238;48.404;9.498;2023-02-15T15:39:53;2.97;;;2.78;;
8401;SDS011;4238;48.404;9.498;2023-02-15T15:42:51;3.28;;;2.97;;
8401;SDS011;4238;48.404;9.498;2023-02-15T15:46:01;3.25;;;2.95;;
8401;SDS011;4238;48.404;9.498;2023-02-15T15:48:44;2.85;;;2.65;;
8401;SDS011;4238;48.404;9.498;2023-02-15T15:51:12;3.33;;;2.70;;
8401;SDS011;4238;48.404;9.498;2023-02-15T15:53:48;3.50;;;3.20;;
8401;SDS011;4238;48.404;9.498;2023-02-15T15:56:18;2.75;;;2.55;;
8401;SDS011;4238;48.404;9.498;2023-02-15T15:58:49;4.65;;;2.83;;
8401;SDS011;4238;48.404;9.498;2023-02-15T16:01:24;4.28;;;2.78;;
8401;SDS011;4238;48.404;9.498;2023-02-15T16:03:53;7.43;;;6.72;;
8401;SDS011;4238;48.404;9.498;2023-02-15T16:06:27;10.18;;;8.20;;
8401;SDS011;4238;48.404;9.498;2023-02-15T16:08:57;8.95;;;7.97;;